EZS16MJ LFBD-LSGG
Flight info
| Callsign | EZS16MJ |
|---|---|
| Flight time | N/A |
| Altitude | 33000 |
| Route | OBLOC DCT SECHE DCT NARAK/N0422F340 DCT DITEV DCT MEN DCT NINUN DCT LATAM DCT ETREK/N0405F300 DCT LUXAN G53 LTP Z16 BELUS |
| Aircraft | A320/M-SDE2E3FGHIJ1RWXYZ/LB1 |
Departure
| Time | 2026-04-30 14:33 |
|---|---|
| Airport | Bordeaux–Mérignac Airport (LFBD) |
Arrival
| Time | N/A |
|---|---|
| Airport | Geneva International Airport (LSGG) |
| Time | Latitude | Longitude | Altitude | Speed | Heading |
|---|---|---|---|---|---|
| 2026-04-30 14:19 | 44.83004 | -0.70602 | 171 ft | 0 kts | 134° |
| 2026-04-30 14:25 | 44.83022 | -0.70627 | 170 ft | 4 kts | 139° |
| 2026-04-30 14:25 | 44.83067 | -0.70664 | 170 ft | 4 kts | 183° |
| 2026-04-30 14:26 | 44.83081 | -0.70658 | 170 ft | 3 kts | 225° |
| 2026-04-30 14:28 | 44.83022 | -0.70741 | 170 ft | 16 kts | 223° |
| 2026-04-30 14:28 | 44.82933 | -0.70855 | 171 ft | 18 kts | 258° |
| 2026-04-30 14:28 | 44.82960 | -0.71030 | 170 ft | 21 kts | 286° |
| 2026-04-30 14:28 | 44.83005 | -0.71246 | 169 ft | 23 kts | 286° |
| 2026-04-30 14:29 | 44.83083 | -0.71598 | 170 ft | 19 kts | 286° |
| 2026-04-30 14:29 | 44.83163 | -0.72045 | 169 ft | 20 kts | 254° |
| 2026-04-30 14:30 | 44.83038 | -0.72351 | 170 ft | 12 kts | 287° |
| 2026-04-30 14:31 | 44.83101 | -0.72638 | 167 ft | 18 kts | 287° |
| 2026-04-30 14:31 | 44.83135 | -0.72891 | 167 ft | 5 kts | 329° |
| 2026-04-30 14:31 | 44.83153 | -0.72857 | 167 ft | 8 kts | 83° |
| 2026-04-30 14:32 | 44.83037 | -0.72347 | 170 ft | 80 kts | 107° |
| 2026-04-30 14:32 | 44.82821 | -0.71324 | 169 ft | 136 kts | 107° |
| 2026-04-30 14:32 | 44.82524 | -0.69944 | 598 ft | 152 kts | 109° |
| 2026-04-30 14:33 | 44.81993 | -0.68652 | 1282 ft | 157 kts | 144° |
| 2026-04-30 14:33 | 44.79771 | -0.68433 | 2150 ft | 189 kts | 203° |
| 2026-04-30 14:33 | 44.78421 | -0.69030 | 2543 ft | 213 kts | 193° |
| 2026-04-30 14:34 | 44.76907 | -0.69480 | 2980 ft | 237 kts | 192° |
| 2026-04-30 14:34 | 44.75203 | -0.69509 | 3563 ft | 253 kts | 167° |
| 2026-04-30 14:34 | 44.73645 | -0.68326 | 4428 ft | 262 kts | 137° |
| 2026-04-30 14:34 | 44.72706 | -0.66126 | 5320 ft | 270 kts | 106° |
| 2026-04-30 14:35 | 44.72146 | -0.60848 | 7140 ft | 276 kts | 99° |
| 2026-04-30 14:35 | 44.71900 | -0.58155 | 7988 ft | 280 kts | 99° |
| 2026-04-30 14:35 | 44.71647 | -0.55424 | 8823 ft | 283 kts | 100° |
| 2026-04-30 14:36 | 44.71384 | -0.52660 | 9687 ft | 289 kts | 100° |
| 2026-04-30 14:36 | 44.71111 | -0.49829 | 10397 ft | 298 kts | 100° |
| 2026-04-30 14:36 | 44.70818 | -0.46832 | 10684 ft | 321 kts | 100° |
| 2026-04-30 14:36 | 44.70507 | -0.43670 | 11271 ft | 331 kts | 100° |
| 2026-04-30 14:37 | 44.70190 | -0.40447 | 12048 ft | 335 kts | 100° |
| 2026-04-30 14:37 | 44.69869 | -0.37184 | 12850 ft | 339 kts | 100° |
| 2026-04-30 14:37 | 44.69545 | -0.33888 | 13623 ft | 342 kts | 100° |
| 2026-04-30 14:37 | 44.69215 | -0.30557 | 14332 ft | 346 kts | 100° |
| 2026-04-30 14:38 | 44.68875 | -0.27199 | 14990 ft | 349 kts | 101° |
| 2026-04-30 14:38 | 44.68530 | -0.23813 | 15657 ft | 351 kts | 101° |
| 2026-04-30 14:38 | 44.68185 | -0.20401 | 16314 ft | 354 kts | 100° |
| 2026-04-30 14:38 | 44.67817 | -0.16967 | 16962 ft | 356 kts | 104° |
| 2026-04-30 14:39 | 44.67088 | -0.13646 | 17606 ft | 356 kts | 115° |
| 2026-04-30 14:39 | 44.66002 | -0.10509 | 18264 ft | 358 kts | 118° |
| 2026-04-30 14:39 | 44.64882 | -0.07361 | 18839 ft | 361 kts | 118° |
| 2026-04-30 14:40 | 44.62626 | -0.00998 | 19959 ft | 367 kts | 118° |
| 2026-04-30 14:40 | 44.61484 | 0.02224 | 20481 ft | 371 kts | 119° |
| 2026-04-30 14:40 | 44.60326 | 0.05486 | 20978 ft | 376 kts | 119° |
| 2026-04-30 14:40 | 44.59158 | 0.08785 | 21470 ft | 379 kts | 119° |
| 2026-04-30 14:41 | 44.57979 | 0.12111 | 21991 ft | 382 kts | 119° |
| 2026-04-30 14:41 | 44.56789 | 0.15463 | 22501 ft | 386 kts | 119° |
| 2026-04-30 14:41 | 44.55587 | 0.18842 | 22998 ft | 389 kts | 119° |
| 2026-04-30 14:41 | 44.54373 | 0.22245 | 23494 ft | 392 kts | 119° |
| 2026-04-30 14:42 | 44.53148 | 0.25672 | 23929 ft | 394 kts | 119° |
| 2026-04-30 14:42 | 44.51913 | 0.29120 | 24308 ft | 398 kts | 119° |
| 2026-04-30 14:42 | 44.50683 | 0.32550 | 24686 ft | 401 kts | 119° |
| 2026-04-30 14:42 | 44.49428 | 0.36052 | 25072 ft | 404 kts | 119° |
| 2026-04-30 14:43 | 44.48163 | 0.39577 | 25448 ft | 406 kts | 119° |
| 2026-04-30 14:43 | 44.46886 | 0.43126 | 25865 ft | 409 kts | 119° |
| 2026-04-30 14:43 | 44.45603 | 0.46690 | 26227 ft | 411 kts | 119° |
| 2026-04-30 14:43 | 44.44386 | 0.50332 | 26588 ft | 416 kts | 113° |
| 2026-04-30 14:44 | 44.43567 | 0.54243 | 26962 ft | 422 kts | 103° |
| 2026-04-30 14:44 | 44.43099 | 0.58332 | 27346 ft | 429 kts | 101° |
| 2026-04-30 14:44 | 44.42647 | 0.62468 | 27779 ft | 431 kts | 101° |
| 2026-04-30 14:44 | 44.42190 | 0.66624 | 28207 ft | 433 kts | 101° |
| 2026-04-30 14:45 | 44.41725 | 0.70802 | 28518 ft | 438 kts | 102° |
| 2026-04-30 14:45 | 44.41248 | 0.75044 | 28661 ft | 445 kts | 102° |
| 2026-04-30 14:45 | 44.40757 | 0.79354 | 28815 ft | 452 kts | 102° |
| 2026-04-30 14:45 | 44.40255 | 0.83719 | 29115 ft | 456 kts | 102° |
| 2026-04-30 14:46 | 44.39752 | 0.88107 | 29417 ft | 459 kts | 102° |
| 2026-04-30 14:46 | 44.39248 | 0.92527 | 29739 ft | 462 kts | 102° |
| 2026-04-30 14:46 | 44.38741 | 0.96972 | 30066 ft | 465 kts | 102° |
| 2026-04-30 14:46 | 44.38229 | 1.01454 | 30348 ft | 468 kts | 102° |
| 2026-04-30 14:47 | 44.37710 | 1.05955 | 30606 ft | 470 kts | 102° |
| 2026-04-30 14:47 | 44.37191 | 1.10473 | 30856 ft | 472 kts | 101° |
| 2026-04-30 14:47 | 44.36666 | 1.15009 | 31081 ft | 474 kts | 101° |
| 2026-04-30 14:47 | 44.36134 | 1.19557 | 31353 ft | 475 kts | 101° |
| 2026-04-30 14:48 | 44.35597 | 1.24118 | 31639 ft | 476 kts | 101° |
| 2026-04-30 14:48 | 44.35060 | 1.28681 | 32008 ft | 476 kts | 101° |
| 2026-04-30 14:48 | 44.34525 | 1.33241 | 32358 ft | 476 kts | 101° |
| 2026-04-30 14:48 | 44.33988 | 1.37801 | 32694 ft | 476 kts | 101° |
| 2026-04-30 14:49 | 44.33449 | 1.42361 | 33018 ft | 476 kts | 101° |
| 2026-04-30 14:49 | 44.32908 | 1.46917 | 33117 ft | 472 kts | 101° |
| 2026-04-30 14:49 | 44.32377 | 1.51377 | 33132 ft | 461 kts | 102° |
| 2026-04-30 14:49 | 44.31851 | 1.55775 | 33120 ft | 456 kts | 101° |
| 2026-04-30 14:50 | 44.30266 | 1.68844 | 33129 ft | 455 kts | 101° |
| 2026-04-30 14:51 | 44.30102 | 1.77663 | 33130 ft | 458 kts | 82° |
| 2026-04-30 14:51 | 44.30720 | 1.81958 | 33127 ft | 458 kts | 76° |
| 2026-04-30 14:52 | 44.32917 | 1.94937 | 33121 ft | 457 kts | 77° |
| 2026-04-30 14:52 | 44.35053 | 2.07905 | 33142 ft | 456 kts | 77° |
| 2026-04-30 14:53 | 44.37196 | 2.20851 | 33150 ft | 456 kts | 77° |
| 2026-04-30 14:54 | 44.40018 | 2.38115 | 33177 ft | 454 kts | 78° |
| 2026-04-30 14:55 | 44.42106 | 2.50961 | 33204 ft | 449 kts | 78° |
| 2026-04-30 14:56 | 44.44825 | 2.67923 | 33176 ft | 445 kts | 78° |
| 2026-04-30 14:57 | 44.46844 | 2.80584 | 33177 ft | 444 kts | 78° |
| 2026-04-30 14:58 | 44.51366 | 2.96477 | 33170 ft | 443 kts | 55° |
| 2026-04-30 14:58 | 44.56539 | 3.07214 | 33164 ft | 443 kts | 56° |
| 2026-04-30 15:00 | 44.64703 | 3.25428 | 33183 ft | 439 kts | 62° |
| 2026-04-30 15:01 | 44.70537 | 3.40482 | 33172 ft | 438 kts | 62° |
| 2026-04-30 15:01 | 44.75020 | 3.51680 | 33169 ft | 438 kts | 61° |
| 2026-04-30 15:02 | 44.77999 | 3.59152 | 33163 ft | 438 kts | 62° |
| 2026-04-30 15:03 | 44.85388 | 3.77859 | 33166 ft | 435 kts | 62° |
| 2026-04-30 15:04 | 44.92733 | 3.96516 | 33168 ft | 435 kts | 62° |
| 2026-04-30 15:06 | 45.00011 | 4.15161 | 33175 ft | 432 kts | 62° |
| 2026-04-30 15:07 | 45.05771 | 4.30094 | 33166 ft | 434 kts | 62° |
| 2026-04-30 15:08 | 45.11598 | 4.45140 | 32545 ft | 442 kts | 63° |
| 2026-04-30 15:08 | 45.15963 | 4.56515 | 30706 ft | 435 kts | 63° |
| 2026-04-30 15:09 | 45.18342 | 4.62740 | 29703 ft | 431 kts | 62° |
| 2026-04-30 15:09 | 45.21149 | 4.70097 | 28781 ft | 418 kts | 62° |
| 2026-04-30 15:10 | 45.23891 | 4.77287 | 27880 ft | 406 kts | 62° |
| 2026-04-30 15:11 | 45.29114 | 4.91056 | 26055 ft | 389 kts | 62° |
| 2026-04-30 15:11 | 45.31657 | 4.97798 | 25106 ft | 385 kts | 62° |
| 2026-04-30 15:12 | 45.35431 | 5.07800 | 23599 ft | 381 kts | 62° |
| 2026-04-30 15:13 | 45.37907 | 5.14390 | 22595 ft | 374 kts | 62° |
| 2026-04-30 15:14 | 45.42734 | 5.27300 | 20748 ft | 364 kts | 62° |
| 2026-04-30 15:14 | 45.46261 | 5.36731 | 19520 ft | 354 kts | 59° |
| 2026-04-30 15:16 | 45.55304 | 5.47033 | 18236 ft | 325 kts | 36° |
| 2026-04-30 15:17 | 45.62583 | 5.54364 | 16732 ft | 317 kts | 37° |
| 2026-04-30 15:18 | 45.72015 | 5.62117 | 15816 ft | 313 kts | 23° |
| 2026-04-30 15:19 | 45.78019 | 5.65579 | 14549 ft | 306 kts | 22° |